^^
Station Historical Data
 
Daily Summary for February 23, 2018 Units:  English    Metric   Both
« Previous Day
Next Day »
Daily Weekly Monthly Yearly Custom
  Current: High: Low: Average:
Temperature: 27.2 °F TemperatureF °F 27.2 °F 32.5 °F
Dew Point: 23.6 °F DewpointF °F 23.6 °F 30 °F
Humidity: 86% Humidity% 78% 90%
Wind Speed: 7.6mph WindSpeedMPHmph 0.0mph 6.4mph
Wind Gust: 12.7mph WindSpeedGustMPHmph - -
WindNNW - - WSW
Pressure: 30.26 in PressureIn in 30.01 in -
Precipitation: 0.14 in      
Historical Graphs
 
 
Tabular Data for February 23, 2018
Time Temperature Dew Point Pressure Wind Wind Speed Wind Gust Humidity Rainfall Rate (Hourly) solar Conditions
TemperatureF °F DewpointF °F PressureIn in Calm     Humidity% HourlyPrecipIn in SolarRadiationWatts/m^2 W/m2 Conditions
00:01 30.4 °F 29.7 °F 30.19 in ENE 6.1 mph 6.1 mph 97% 0.00 in 0.0 W/m2 OVC
00:06 30.4 °F 29.7 °F 30.19 in SE 6.1 mph 8.1 mph 97% 0.00 in 0.0 W/m2 OVC
00:11 30.4 °F 29.7 °F 30.19 in East 9.6 mph 12.0 mph 97% 0.00 in 0.0 W/m2 OVC
00:16 30.5 °F 29.8 °F 30.18 in SE 6.0 mph 6.9 mph 97% 0.00 in 0.0 W/m2 OVC
00:21 30.5 °F 29.8 °F 30.18 in ESE 7.3 mph 9.6 mph 97% 0.00 in 0.0 W/m2 OVC
00:26 30.5 °F 29.8 °F 30.18 in ESE 6.4 mph 8.1 mph 97% 0.00 in 0.0 W/m2 OVC
00:31 30.5 °F 29.8 °F 30.17 in SSE 8.0 mph 9.2 mph 97% 0.00 in 0.0 W/m2 OVC
00:36 30.6 °F 29.9 °F 30.17 in ESE 3.5 mph 5.8 mph 97% 0.00 in 0.0 W/m2 OVC
00:41 30.6 °F 29.9 °F 30.17 in SSE 5.7 mph 8.4 mph 97% 0.00 in 0.0 W/m2 OVC
00:46 30.7 °F 30.0 °F 30.16 in SSE 7.9 mph 12.7 mph 97% 0.00 in 0.0 W/m2 OVC
00:52 30.7 °F 30.0 °F 30.16 in SE 9.0 mph 12.0 mph 97% 0.00 in 0.0 W/m2 OVC
00:57 30.8 °F 30.0 °F 30.15 in East 6.6 mph 10.4 mph 97% 0.00 in 0.0 W/m2 OVC
01:02 30.9 °F 30.1 °F 30.15 in SE 7.8 mph 8.4 mph 97% 0.00 in 0.0 W/m2 OVC
01:07 31.0 °F 30.2 °F 30.14 in ESE 9.4 mph 12.7 mph 97% 0.00 in 0.0 W/m2 OVC
01:12 31.0 °F 30.2 °F 30.14 in SSE 7.4 mph 8.4 mph 97% 0.00 in 0.0 W/m2 OVC
01:17 31.1 °F 30.3 °F 30.14 in ESE 10.6 mph 11.5 mph 97% 0.00 in 0.0 W/m2 OVC
01:22 31.1 °F 30.3 °F 30.14 in SE 7.8 mph 9.2 mph 97% 0.00 in 0.0 W/m2 OVC
01:27 31.1 °F 30.3 °F 30.14 in SSE 8.8 mph 9.6 mph 97% 0.00 in 0.0 W/m2 OVC
01:32 31.1 °F 30.3 °F 30.13 in SE 5.1 mph 6.9 mph 97% 0.00 in 0.0 W/m2 OVC
01:37 31.1 °F 30.3 °F 30.12 in SE 3.4 mph 8.1 mph 97% 0.00 in 0.0 W/m2 OVC
01:42 31.1 °F 30.6 °F 30.12 in East 2.0 mph 4.6 mph 98% 0.00 in 0.0 W/m2 OVC
01:47 31.1 °F 30.6 °F 30.11 in SSE 3.6 mph 10.4 mph 98% 0.00 in 0.0 W/m2 OVC
01:52 31.2 °F 30.7 °F 30.11 in ESE 4.5 mph 9.2 mph 98% 0.00 in 0.0 W/m2 OVC
01:58 31.2 °F 30.7 °F 30.11 in SE 6.7 mph 9.2 mph 98% 0.00 in 0.0 W/m2 OVC
02:03 31.2 °F 30.7 °F 30.10 in East 5.2 mph 8.1 mph 98% 0.00 in 0.0 W/m2 OVC
02:08 31.2 °F 30.7 °F 30.10 in ESE 3.6 mph 5.8 mph 98% 0.00 in 0.0 W/m2 OVC
02:13 31.3 °F 30.8 °F 30.10 in SE 2.6 mph 4.6 mph 98% 0.00 in 0.0 W/m2 OVC
02:18 31.4 °F 30.9 °F 30.10 in SE 7.5 mph 7.5 mph 98% 0.00 in 0.0 W/m2 OVC
02:23 31.4 °F 30.9 °F 30.10 in SSE 2.9 mph 8.1 mph 98% 0.00 in 0.0 W/m2 OVC
02:28 31.5 °F 31.0 °F 30.09 in SSE 0.2 mph 2.4 mph 98% 0.00 in 0.0 W/m2 OVC
02:33 31.5 °F 31.0 °F 30.08 in SE 5.4 mph 6.0 mph 98% 0.01 in 0.0 W/m2 RA
02:38 31.6 °F 31.1 °F 30.08 in SE 6.3 mph 6.9 mph 98% 0.02 in 0.0 W/m2 RA
02:43 31.7 °F 31.2 °F 30.08 in SE 3.4 mph 5.8 mph 98% 0.02 in 0.0 W/m2 RA
02:48 31.8 °F 31.3 °F 30.07 in SE 4.9 mph 6.9 mph 98% 0.04 in 0.0 W/m2 RA
02:53 31.8 °F 31.3 °F 30.07 in SE 1.3 mph 2.3 mph 98% 0.05 in 0.0 W/m2 RA
02:59 31.9 °F 31.4 °F 30.07 in SE 4.0 mph 6.9 mph 98% 0.06 in 0.0 W/m2 RA
03:04 31.9 °F 31.4 °F 30.06 in SE 1.9 mph 6.9 mph 98% 0.07 in 0.0 W/m2 -RA
03:09 32.0 °F 31.5 °F 30.07 in SE 1.2 mph 4.6 mph 98% 0.07 in 0.0 W/m2 -RA
03:14 32.0 °F 31.5 °F 30.07 in SE 0.2 mph   98% 0.07 in 0.0 W/m2 -RA
03:19 32.0 °F 31.5 °F 30.07 in SE 2.6 mph 4.8 mph 98% 0.07 in 0.0 W/m2 -RA
03:24 32.0 °F 31.5 °F 30.07 in SE 2.8 mph 4.6 mph 98% 0.08 in 0.0 W/m2 -RA
03:29 32.0 °F 31.5 °F 30.07 in SE 1.7 mph 2.4 mph 98% 0.09 in 0.0 W/m2 -RA
03:34 32.0 °F 31.5 °F 30.08 in SE 1.8 mph 2.4 mph 98% 0.09 in 0.0 W/m2 -RA
03:39 32.0 °F 31.5 °F 30.08 in Calm     98% 0.08 in 0.0 W/m2 -RA
03:44 32.1 °F 31.6 °F 30.07 in Calm     98% 0.08 in 0.0 W/m2 RA
03:49 32.1 °F 31.6 °F 30.07 in Calm     98% 0.07 in 0.0 W/m2 RA
03:54 32.1 °F 31.6 °F 30.07 in Calm     98% 0.07 in 0.0 W/m2 OVC
03:59 32.1 °F 31.6 °F 30.06 in Calm     98% 0.06 in 0.0 W/m2 OVC
04:04 32.1 °F 31.9 °F 30.06 in Calm     99% 0.05 in 0.0 W/m2 OVC
04:10 32.1 °F 31.9 °F 30.06 in Calm     99% 0.05 in 0.0 W/m2 OVC
04:15 32.2 °F 32.0 °F 30.05 in Calm     99% 0.05 in 0.0 W/m2 OVC
04:20 32.2 °F 32.0 °F 30.05 in Calm     99% 0.05 in 0.0 W/m2 OVC
04:25 32.2 °F 32.0 °F 30.05 in Calm     99% 0.04 in 0.0 W/m2 RA
04:30 32.2 °F 32.0 °F 30.05 in Calm     99% 0.04 in 0.0 W/m2 OVC
04:35 32.2 °F 32.0 °F 30.04 in Calm     99% 0.02 in 0.0 W/m2 OVC
04:40 32.2 °F 32.0 °F 30.03 in Calm     99% 0.01 in 0.0 W/m2 OVC
04:45 32.3 °F 32.1 °F 30.03 in Calm     99% 0.01 in 0.0 W/m2 OVC
04:50 32.3 °F 32.1 °F 30.02 in Calm     99% 0.01 in 0.0 W/m2 OVC
04:55 32.3 °F 32.1 °F 30.02 in SE 0.6 mph   99% 0.01 in 0.0 W/m2 OVC
05:00 32.3 °F 32.1 °F 30.02 in SE 0.6 mph 1.2 mph 99% 0.01 in 0.0 W/m2 -RA
05:05 32.3 °F 32.1 °F 30.01 in SE 2.5 mph 2.5 mph 99% 0.02 in 0.0 W/m2 -RA
05:10 32.3 °F 32.1 °F 30.01 in SE 3.3 mph 4.6 mph 99% 0.02 in 0.0 W/m2 -RA
05:15 32.3 °F 32.1 °F 30.01 in Calm   1.2 mph 99% 0.02 in 0.0 W/m2 -RA
05:20 32.3 °F 32.1 °F 30.01 in SE 1.2 mph 2.3 mph 99% 0.01 in 0.0 W/m2 -DZ
05:25 32.3 °F 32.1 °F 30.02 in SE 0.2 mph 2.3 mph 99% 0.01 in 0.0 W/m2 -DZ
05:31 32.4 °F 32.2 °F 30.02 in SE 1.9 mph 2.4 mph 99% 0.01 in 0.0 W/m2 -DZ
05:36 32.5 °F 32.3 °F 30.02 in SE 1.3 mph 2.3 mph 99% 0.01 in 0.0 W/m2 -DZ
05:41 32.5 °F 32.3 °F 30.02 in SE 0.9 mph 2.3 mph 99% 0.01 in 0.0 W/m2 OVC
05:46 32.5 °F 32.3 °F 30.02 in SE 0.5 mph 1.2 mph 99% 0.01 in 0.0 W/m2 OVC
05:51 32.5 °F 32.3 °F 30.03 in Calm     99% 0.01 in 0.0 W/m2 OVC
05:56 32.5 °F 32.3 °F 30.03 in Calm     99% 0.01 in 0.0 W/m2 OVC
06:01 32.4 °F 32.2 °F 30.03 in Calm     99% 0.01 in 0.0 W/m2 OVC
06:06 32.4 °F 32.2 °F 30.03 in Calm     99% 0.00 in 0.0 W/m2 OVC
06:11 32.5 °F 32.3 °F 30.03 in Calm     99% 0.00 in 0.0 W/m2 OVC
06:17 32.5 °F 32.3 °F 30.03 in SE 1.0 mph 2.0 mph 99% 0.00 in 0.0 W/m2 OVC
06:22 33.2 °F 33.0 °F 30.02 in South 6.0 mph 7.0 mph 99% 0.00 in 0.0 W/m2 OVC
06:27 33.4 °F 33.2 °F 30.02 in SSW 7.0 mph 7.0 mph 99% 0.00 in 0.0 W/m2 OVC
06:32 33.5 °F 33.2 °F 30.02 in SSW 5.0 mph 5.0 mph 99% 0.00 in 0.0 W/m2 OVC
06:37 33.6 °F 33.3 °F 30.03 in SSW 6.0 mph 8.0 mph 99% 0.00 in 0.0 W/m2 OVC
06:42 33.8 °F 33.5 °F 30.03 in SSW 5.0 mph 7.0 mph 99% 0.00 in 0.0 W/m2 OVC
06:47 33.8 °F 33.5 °F 30.03 in SSW 6.0 mph 6.0 mph 99% 0.00 in 0.0 W/m2 OVC
06:52 33.8 °F 33.5 °F 30.03 in SSW 2.0 mph 5.0 mph 99% 0.00 in 0.0 W/m2 OVC
06:57 33.9 °F 33.7 °F 30.03 in SSW 6.0 mph 12.0 mph 99% 0.00 in 0.0 W/m2 OVC
07:02 34.1 °F 33.8 °F 30.03 in WSW 2.3 mph 4.8 mph 99% 0.00 in 0.0 W/m2 OVC
07:07 34.2 °F 33.9 °F 30.03 in WSW 3.0 mph 6.9 mph 99% 0.00 in 0.0 W/m2 OVC
07:12 34.2 °F 33.9 °F 30.03 in SW 2.9 mph 4.8 mph 99% 0.00 in 0.0 W/m2 OVC
07:17 34.2 °F 33.9 °F 30.03 in WSW 4.5 mph 4.6 mph 99% 0.00 in 5.0 W/m2 OVC
07:22 34.2 °F 33.9 °F 30.03 in SW 4.8 mph 4.8 mph 99% 0.00 in 7.0 W/m2 OVC
07:27 34.2 °F 33.9 °F 30.03 in WSW 7.4 mph 9.2 mph 99% 0.00 in 9.0 W/m2 OVC
07:32 34.2 °F 33.9 °F 30.03 in WSW 6.5 mph 6.9 mph 99% 0.00 in 9.0 W/m2 OVC
07:37 34.2 °F 33.9 °F 30.03 in WNW 5.1 mph 10.4 mph 99% 0.00 in 9.0 W/m2 OVC
07:42 34.2 °F 33.9 °F 30.04 in West 7.2 mph 7.2 mph 99% 0.00 in 11.0 W/m2 OVC
07:47 34.2 °F 33.9 °F 30.04 in WSW 8.8 mph 12.7 mph 99% 0.00 in 11.0 W/m2 OVC
07:52 34.2 °F 33.9 °F 30.04 in WNW 5.4 mph 8.4 mph 99% 0.00 in 11.0 W/m2 OVC
07:57 34.2 °F 33.7 °F 30.05 in West 6.5 mph 6.9 mph 98% 0.00 in 12.0 W/m2 OVC
08:03 34.3 °F 33.8 °F 30.05 in WNW 7.6 mph 15.0 mph 98% 0.00 in 16.0 W/m2 OVC
08:08 34.3 °F 33.8 °F 30.05 in WNW 8.3 mph 9.2 mph 98% 0.00 in 14.0 W/m2 OVC
08:13 34.3 °F 33.8 °F 30.05 in WSW 7.1 mph 9.6 mph 98% 0.00 in 21.0 W/m2 OVC
08:18 34.3 °F 33.8 °F 30.06 in WSW 10.9 mph 10.9 mph 98% 0.00 in 19.0 W/m2 OVC
08:23 34.3 °F 33.5 °F 30.06 in West 8.3 mph 12.7 mph 97% 0.00 in 35.0 W/m2 OVC
08:28 34.3 °F 33.5 °F 30.06 in WSW 7.7 mph 9.2 mph 97% 0.00 in 30.0 W/m2 OVC
08:33 34.3 °F 33.5 °F 30.06 in WSW 4.3 mph 6.0 mph 97% 0.00 in 30.0 W/m2 OVC
08:38 34.2 °F 33.4 °F 30.06 in WNW 7.6 mph 10.4 mph 97% 0.00 in 33.0 W/m2 OVC
08:43 34.2 °F 33.4 °F 30.06 in West 8.0 mph 10.4 mph 97% 0.00 in 28.0 W/m2 -RA
08:48 34.2 °F 33.4 °F 30.06 in WNW 6.1 mph 11.5 mph 97% 0.00 in 30.0 W/m2 -RA
08:54 34.2 °F 33.4 °F 30.06 in West 8.8 mph 12.0 mph 97% 0.00 in 32.0 W/m2 -RA
08:59 34.2 °F 33.4 °F 30.07 in West 7.8 mph 8.4 mph 97% 0.00 in 32.0 W/m2 -RA
09:04 34.2 °F 33.4 °F 30.07 in WSW 7.4 mph 8.1 mph 97% 0.00 in 33.0 W/m2 -RA
09:09 34.2 °F 33.4 °F 30.07 in WNW 11.0 mph 12.7 mph 97% 0.00 in 37.0 W/m2 -RA
09:14 34.2 °F 33.4 °F 30.07 in West 6.8 mph 8.4 mph 97% 0.00 in 37.0 W/m2 -RA
09:19 34.2 °F 33.2 °F 30.07 in WSW 8.1 mph 9.2 mph 96% 0.00 in 49.0 W/m2 -RA
09:24 34.2 °F 33.2 °F 30.07 in WNW 4.0 mph 5.8 mph 96% 0.00 in 62.0 W/m2 OVC
09:29 34.3 °F 33.5 °F 30.07 in WNW 7.0 mph 7.0 mph 97% 0.00 in 74.0 W/m2 OVC
09:34 34.4 °F 33.6 °F 30.07 in SW 5.1 mph 7.2 mph 97% 0.00 in 72.0 W/m2 OVC
09:39 34.4 °F 33.6 °F 30.07 in WSW 4.4 mph 5.8 mph 97% 0.00 in 100.0 W/m2 OVC
09:44 34.5 °F 33.7 °F 30.07 in West 4.8 mph 6.0 mph 97% 0.00 in 134.0 W/m2 OVC
09:49 34.6 °F 33.6 °F 30.07 in West 7.6 mph 9.2 mph 96% 0.00 in 151.0 W/m2 OVC
09:54 34.7 °F 33.7 °F 30.08 in West 8.7 mph 9.6 mph 96% 0.00 in 258.0 W/m2 OVC
09:59 34.9 °F 33.9 °F 30.08 in WSW 6.4 mph 8.1 mph 96% 0.00 in 158.0 W/m2 OVC
10:05 35.1 °F 33.8 °F 30.08 in WSW 5.0 mph 5.8 mph 95% 0.00 in 163.0 W/m2 OVC
10:10 35.2 °F 33.9 °F 30.08 in WSW 9.5 mph 12.7 mph 95% 0.00 in 141.0 W/m2 OVC
10:15 35.3 °F 33.7 °F 30.08 in West 5.2 mph 6.9 mph 94% 0.00 in 141.0 W/m2 OVC
10:20 35.3 °F 33.7 °F 30.09 in SW 6.9 mph 7.2 mph 94% 0.00 in 125.0 W/m2 OVC
10:25 35.4 °F 33.8 °F 30.09 in West 8.3 mph 8.4 mph 94% 0.00 in 135.0 W/m2 OVC
10:30 35.4 °F 33.6 °F 30.09 in West 8.4 mph 12.7 mph 93% 0.00 in 148.0 W/m2 OVC
10:35 35.5 °F 33.7 °F 30.10 in West 6.2 mph 8.1 mph 93% 0.00 in 134.0 W/m2 OVC
10:40 35.4 °F 33.6 °F 30.10 in SW 8.1 mph 9.2 mph 93% 0.00 in 84.0 W/m2 OVC
10:45 35.2 °F 33.4 °F 30.10 in West 6.8 mph 10.4 mph 93% 0.00 in 109.0 W/m2 OVC
10:50 35.2 °F 33.4 °F 30.11 in SW 6.2 mph 9.6 mph 93% 0.00 in 199.0 W/m2 OVC
10:56 35.2 °F 33.4 °F 30.10 in West 5.9 mph 11.5 mph 93% 0.00 in 220.0 W/m2 OVC
11:01 35.2 °F 33.1 °F 30.11 in WSW 7.8 mph 16.1 mph 92% 0.00 in 209.0 W/m2 OVC
11:06 35.4 °F 33.3 °F 30.10 in West 7.1 mph 8.1 mph 92% 0.00 in 153.0 W/m2 OVC
11:11 35.3 °F 33.2 °F 30.10 in WSW 6.6 mph 6.9 mph 92% 0.00 in 171.0 W/m2 OVC
11:16 35.4 °F 33.3 °F 30.10 in SW 6.8 mph 9.2 mph 92% 0.00 in 178.0 W/m2 OVC
11:21 35.5 °F 33.4 °F 30.11 in SW 5.0 mph 6.0 mph 92% 0.00 in 144.0 W/m2 OVC
11:26 35.4 °F 33.0 °F 30.11 in West 6.7 mph 8.4 mph 91% 0.00 in 134.0 W/m2 OVC
11:31 35.3 °F 32.9 °F 30.11 in WSW 8.7 mph 9.6 mph 91% 0.00 in 141.0 W/m2 OVC
11:36 35.2 °F 32.8 °F 30.11 in West 8.7 mph 8.7 mph 91% 0.00 in 144.0 W/m2 OVC
11:41 35.2 °F 32.6 °F 30.11 in NW 10.4 mph 15.0 mph 90% 0.00 in 176.0 W/m2 OVC
11:46 35.3 °F 32.7 °F 30.11 in West 4.7 mph 9.2 mph 90% 0.00 in 183.0 W/m2 OVC
11:51 35.3 °F 32.4 °F 30.11 in WSW 11.1 mph 17.3 mph 89% 0.00 in 160.0 W/m2 OVC
11:56 35.2 °F 32.3 °F 30.11 in WNW 9.5 mph 11.5 mph 89% 0.00 in 142.0 W/m2 OVC
12:02 35.2 °F 32.3 °F 30.11 in WNW 4.8 mph 9.2 mph 89% 0.00 in 130.0 W/m2 OVC
12:07 35.1 °F 32.2 °F 30.11 in WNW 10.0 mph 13.0 mph 89% 0.00 in 146.0 W/m2 OVC
12:12 35.0 °F 31.8 °F 30.12 in WNW 9.7 mph 15.0 mph 88% 0.00 in 155.0 W/m2 OVC
12:17 34.9 °F 31.7 °F 30.11 in NW 4.6 mph 6.9 mph 88% 0.00 in 156.0 W/m2 OVC
12:22 35.0 °F 31.8 °F 30.12 in NW 6.9 mph 8.1 mph 88% 0.00 in 162.0 W/m2 OVC
12:27 34.8 °F 31.3 °F 30.11 in West 11.0 mph 12.7 mph 87% 0.00 in 172.0 W/m2 OVC
12:32 34.8 °F 31.3 °F 30.11 in West 11.3 mph 12.7 mph 87% 0.00 in 230.0 W/m2 OVC
12:37 34.7 °F 31.2 °F 30.11 in NW 7.8 mph 7.8 mph 87% 0.00 in 181.0 W/m2 OVC
12:42 34.7 °F 31.2 °F 30.11 in WNW 12.0 mph 15.0 mph 87% 0.00 in 171.0 W/m2 OVC
12:47 34.4 °F 30.6 °F 30.11 in WNW 11.9 mph 19.6 mph 86% 0.00 in 169.0 W/m2 OVC
12:52 34.5 °F 30.7 °F 30.11 in WNW 11.2 mph 14.4 mph 86% 0.00 in 195.0 W/m2 OVC
12:57 34.7 °F 30.9 °F 30.11 in SSW 9.4 mph 12.7 mph 86% 0.00 in 269.0 W/m2 OVC
13:03 34.7 °F 30.7 °F 30.12 in West 9.7 mph 13.2 mph 85% 0.00 in 274.0 W/m2 OVC
13:08 34.7 °F 30.4 °F 30.12 in WSW 10.2 mph 11.5 mph 84% 0.00 in 214.0 W/m2 OVC
13:13 34.6 °F 30.3 °F 30.12 in NW 7.6 mph 8.1 mph 84% 0.00 in 232.0 W/m2 OVC
13:18 34.7 °F 30.4 °F 30.12 in WNW 8.6 mph 9.2 mph 84% 0.00 in 236.0 W/m2 OVC
13:23 35.7 °F 31.0 °F 30.12 in WSW 6.0 mph 9.2 mph 83% 0.00 in 253.0 W/m2 OVC
13:28 35.6 °F 30.6 °F 30.13 in WNW 11.2 mph 16.1 mph 82% 0.00 in 253.0 W/m2 OVC
13:33 35.2 °F 30.6 °F 30.13 in SW 11.8 mph 17.3 mph 83% 0.00 in 432.0 W/m2 OVC
13:38 35.2 °F 30.3 °F 30.13 in WSW 12.2 mph 19.6 mph 82% 0.00 in 250.0 W/m2 OVC
13:43 35.1 °F 30.2 °F 30.13 in WNW 13.4 mph 17.3 mph 82% 0.00 in 239.0 W/m2 OVC
13:48 34.8 °F 29.9 °F 30.13 in West 10.2 mph 15.0 mph 82% 0.00 in 171.0 W/m2 OVC
13:53 34.7 °F 30.1 °F 30.13 in West 5.4 mph 9.2 mph 83% 0.00 in 227.0 W/m2 OVC
13:58 34.8 °F 30.2 °F 30.14 in WNW 5.3 mph 6.9 mph 83% 0.00 in 192.0 W/m2 OVC
14:04 34.8 °F 30.2 °F 30.14 in WNW 9.2 mph 12.7 mph 83% 0.00 in 156.0 W/m2 BKN
14:09 34.7 °F 30.1 °F 30.15 in West 9.8 mph 9.8 mph 83% 0.00 in 125.0 W/m2 BKN
14:14 34.6 °F 30.0 °F 30.15 in WNW 9.1 mph 9.6 mph 83% 0.00 in 144.0 W/m2 BKN
14:19 34.5 °F 29.9 °F 30.15 in WNW 9.4 mph 14.4 mph 83% 0.00 in 156.0 W/m2 BKN
14:24 34.3 °F 29.7 °F 30.15 in WNW 13.4 mph 16.1 mph 83% 0.00 in 185.0 W/m2 OVC
14:29 34.2 °F 29.6 °F 30.16 in WNW 10.4 mph 10.4 mph 83% 0.00 in 155.0 W/m2 OVC
14:34 34.1 °F 29.5 °F 30.16 in West 9.8 mph 10.4 mph 83% 0.00 in 329.0 W/m2 OVC
14:39 34.1 °F 29.5 °F 30.16 in WNW 14.6 mph 14.6 mph 83% 0.00 in 179.0 W/m2 OVC
14:44 34.2 °F 29.6 °F 30.16 in West 7.3 mph 8.4 mph 83% 0.00 in 202.0 W/m2 OVC
14:49 34.1 °F 29.5 °F 30.16 in West 11.5 mph 13.2 mph 83% 0.00 in 178.0 W/m2 OVC
14:54 33.9 °F 29.3 °F 30.17 in NW 10.5 mph 12.7 mph 83% 0.00 in 169.0 W/m2 OVC
14:59 34.3 °F 29.7 °F 30.16 in NW 10.3 mph 15.0 mph 83% 0.00 in 267.0 W/m2 OVC
15:05 34.3 °F 29.4 °F 30.17 in WNW 11.8 mph 14.4 mph 82% 0.00 in 116.0 W/m2 OVC
15:10 34.2 °F 29.3 °F 30.17 in West 8.9 mph 10.4 mph 82% 0.00 in 100.0 W/m2 OVC
15:15 33.8 °F 28.9 °F 30.17 in WNW 10.5 mph 10.5 mph 82% 0.00 in 113.0 W/m2 OVC
15:20 33.9 °F 28.7 °F 30.17 in WSW 12.5 mph 16.1 mph 81% 0.00 in 399.0 W/m2 OVC
15:25 34.4 °F 28.9 °F 30.17 in SW 9.8 mph 12.7 mph 80% 0.00 in 385.0 W/m2 OVC
15:30 34.7 °F 28.9 °F 30.17 in WSW 11.5 mph 11.5 mph 79% 0.00 in 422.0 W/m2 OVC
15:35 35.0 °F 29.1 °F 30.17 in West 8.4 mph 11.5 mph 79% 0.00 in 316.0 W/m2 OVC
15:40 34.8 °F 29.0 °F 30.17 in NW 8.7 mph 12.7 mph 79% 0.00 in 123.0 W/m2 OVC
15:45 34.4 °F 28.6 °F 30.17 in WNW 9.7 mph 10.4 mph 79% 0.00 in 216.0 W/m2 OVC
15:51 34.5 °F 28.7 °F 30.17 in West 9.3 mph 9.3 mph 79% 0.00 in 311.0 W/m2 OVC
15:56 34.6 °F 28.8 °F 30.17 in NW 8.8 mph 12.7 mph 79% 0.00 in 225.0 W/m2 OVC
16:01 34.1 °F 28.3 °F 30.18 in WNW 12.2 mph 15.0 mph 79% 0.00 in 90.0 W/m2 BKN
16:06 33.7 °F 27.9 °F 30.17 in WNW 6.9 mph 6.9 mph 79% 0.00 in 97.0 W/m2 BKN
16:11 33.5 °F 27.7 °F 30.17 in NW 9.5 mph 10.8 mph 79% 0.00 in 91.0 W/m2 BKN
16:16 33.5 °F 27.7 °F 30.18 in West 11.1 mph 12.7 mph 79% 0.00 in 111.0 W/m2 BKN
16:21 33.5 °F 27.7 °F 30.18 in WNW 8.8 mph 10.4 mph 79% 0.00 in 120.0 W/m2 SCT
16:26 33.5 °F 27.7 °F 30.19 in NW 10.3 mph 10.3 mph 79% 0.00 in 123.0 W/m2 SCT
16:31 33.4 °F 27.3 °F 30.19 in WNW 10.2 mph 10.8 mph 78% 0.00 in 95.0 W/m2 SCT
16:36 33.2 °F 27.1 °F 30.19 in WNW 9.0 mph 10.4 mph 78% 0.00 in 74.0 W/m2 SCT
16:42 33.1 °F 27.0 °F 30.19 in WNW 6.0 mph 10.0 mph 78% 0.00 in 72.0 W/m2 SCT
16:47 33.0 °F 26.9 °F 30.19 in WNW 10.0 mph 11.0 mph 78% 0.00 in 72.0 W/m2 SCT
16:52 32.9 °F 26.8 °F 30.19 in WNW 7.8 mph 10.4 mph 78% 0.00 in 74.0 W/m2 SCT
16:57 32.9 °F 26.8 °F 30.20 in WNW 6.0 mph 13.0 mph 78% 0.00 in 58.0 W/m2 SCT
17:02 32.8 °F 27.0 °F 30.20 in WNW 6.9 mph 8.1 mph 79% 0.00 in 54.0 W/m2 SCT
17:07 32.8 °F 27.0 °F 30.20 in NW 4.2 mph 7.2 mph 79% 0.00 in 51.0 W/m2 SCT
17:12 32.7 °F 26.9 °F 30.20 in WNW 6.5 mph 8.1 mph 79% 0.00 in 47.0 W/m2 SCT
17:17 32.6 °F 26.8 °F 30.20 in West 7.9 mph 8.4 mph 79% 0.00 in 33.0 W/m2 SCT
17:22 32.5 °F 26.7 °F 30.21 in NNW 7.7 mph 9.2 mph 79% 0.00 in 28.0 W/m2 BKN
17:27 32.4 °F 26.6 °F 30.21 in NW 9.4 mph 10.4 mph 79% 0.00 in 19.0 W/m2 BKN
17:32 32.3 °F 26.8 °F 30.21 in NW 7.2 mph 12.7 mph 80% 0.00 in 12.0 W/m2 BKN
17:37 32.2 °F 27.0 °F 30.22 in WNW 5.1 mph 6.9 mph 81% 0.00 in 7.0 W/m2 BKN
17:42 32.1 °F 26.9 °F 30.22 in West 7.2 mph 8.1 mph 81% 0.00 in 5.0 W/m2 BKN
17:47 32.0 °F 26.5 °F 30.22 in WNW 6.0 mph 8.1 mph 80% 0.00 in 0.0 W/m2 BKN
17:52 32.0 °F 26.5 °F 30.22 in West 9.1 mph 9.2 mph 80% 0.00 in 0.0 W/m2 BKN
17:57 31.9 °F 26.4 °F 30.22 in WNW 8.6 mph 9.2 mph 80% 0.00 in 0.0 W/m2 BKN
18:03 31.9 °F 26.4 °F 30.22 in NW 6.5 mph 10.4 mph 80% 0.00 in 0.0 W/m2 OVC
18:08 31.8 °F 26.3 °F 30.22 in WNW 4.9 mph 9.2 mph 80% 0.00 in 0.0 W/m2 OVC
18:13 31.7 °F 26.2 °F 30.22 in West 7.8 mph 8.1 mph 80% 0.00 in 0.0 W/m2 OVC
18:18 31.6 °F 26.4 °F 30.23 in WNW 7.9 mph 10.4 mph 81% 0.00 in 0.0 W/m2 OVC
18:23 31.6 °F 26.4 °F 30.23 in WNW 6.7 mph 7.2 mph 81% 0.00 in 0.0 W/m2 OVC
18:28 31.5 °F 26.3 °F 30.23 in NNW 6.6 mph 9.2 mph 81% 0.00 in 0.0 W/m2 OVC
18:33 31.5 °F 26.3 °F 30.23 in WNW 4.5 mph 6.9 mph 81% 0.00 in 0.0 W/m2 OVC
18:38 31.4 °F 26.5 °F 30.23 in NW 6.5 mph 6.9 mph 82% 0.00 in 0.0 W/m2 OVC
18:43 31.4 °F 26.2 °F 30.23 in NW 8.0 mph 8.1 mph 81% 0.00 in 0.0 W/m2 OVC
18:48 31.2 °F 26.3 °F 30.23 in NW 9.2 mph 10.4 mph 82% 0.00 in 0.0 W/m2 OVC
18:53 31.1 °F 26.0 °F 30.23 in NNW 6.4 mph 8.4 mph 81% 0.00 in 0.0 W/m2 OVC
18:58 31.0 °F 26.1 °F 30.24 in NW 8.6 mph 8.6 mph 82% 0.00 in 0.0 W/m2 OVC
19:04 30.9 °F 26.1 °F 30.24 in WNW 6.9 mph 7.2 mph 82% 0.00 in 0.0 W/m2 OVC
19:09 30.8 °F 26.0 °F 30.24 in NW 6.2 mph 6.9 mph 82% 0.00 in 0.0 W/m2 OVC
19:14 30.7 °F 26.1 °F 30.24 in NW 3.6 mph 6.9 mph 83% 0.00 in 0.0 W/m2 OVC
19:19 30.5 °F 26.0 °F 30.24 in NNW 5.8 mph 9.2 mph 83% 0.00 in 0.0 W/m2 OVC
19:24 30.4 °F 25.9 °F 30.24 in NNW 6.1 mph 7.2 mph 83% 0.00 in 0.0 W/m2 OVC
19:29 30.2 °F 25.7 °F 30.25 in NW 7.1 mph 8.1 mph 83% 0.00 in 0.0 W/m2 OVC
19:34 30.2 °F 25.9 °F 30.25 in NNW 6.0 mph 7.2 mph 84% 0.00 in 0.0 W/m2 OVC
19:39 29.9 °F 25.7 °F 30.25 in NW 8.7 mph 10.4 mph 84% 0.00 in 0.0 W/m2 OVC
19:44 29.8 °F 25.3 °F 30.24 in NNW 9.6 mph 10.4 mph 83% 0.00 in 0.0 W/m2 OVC
19:49 29.6 °F 25.4 °F 30.24 in NNW 6.6 mph 8.1 mph 84% 0.00 in 0.0 W/m2 OVC
19:55 29.5 °F 25.3 °F 30.25 in NW 9.1 mph 9.1 mph 84% 0.00 in 0.0 W/m2 OVC
20:00 29.4 °F 25.2 °F 30.25 in WNW 5.8 mph 6.9 mph 84% 0.00 in 0.0 W/m2 OVC
20:05 29.2 °F 25.0 °F 30.25 in WNW 7.6 mph 8.4 mph 84% 0.00 in 0.0 W/m2 OVC
20:10 29.1 °F 25.2 °F 30.25 in WNW 4.2 mph 5.8 mph 85% 0.00 in 0.0 W/m2 OVC
20:15 29.1 °F 25.2 °F 30.25 in NNW 5.3 mph 6.9 mph 85% 0.00 in 0.0 W/m2 OVC
20:20 29.0 °F 25.1 °F 30.25 in NW 6.1 mph 6.9 mph 85% 0.00 in 0.0 W/m2 OVC
20:25 28.8 °F 24.9 °F 30.25 in NNW 7.1 mph 15.0 mph 85% 0.00 in 0.0 W/m2 OVC
20:30 28.6 °F 24.7 °F 30.25 in NW 8.4 mph 9.2 mph 85% 0.00 in 0.0 W/m2 OVC
20:35 28.5 °F 24.8 °F 30.25 in WNW 6.0 mph 9.2 mph 86% 0.00 in 0.0 W/m2 OVC
20:41 28.3 °F 24.6 °F 30.26 in NW 8.6 mph 8.6 mph 86% 0.00 in 0.0 W/m2 OVC
20:46 28.3 °F 24.6 °F 30.26 in NNW 8.7 mph 10.8 mph 86% 0.00 in 0.0 W/m2 OVC
20:51 28.2 °F 24.6 °F 30.26 in NNW 5.2 mph 7.2 mph 86% 0.00 in 0.0 W/m2 OVC
20:56 28.0 °F 24.4 °F 30.26 in NW 8.6 mph 13.2 mph 86% 0.00 in 0.0 W/m2 OVC
21:01 27.9 °F 24.3 °F 30.26 in WNW 8.8 mph 10.4 mph 86% 0.00 in 0.0 W/m2 OVC
21:06 27.8 °F 24.2 °F 30.26 in NW 6.6 mph 6.6 mph 86% 0.00 in 0.0 W/m2 OVC
21:11 27.7 °F 24.1 °F 30.27 in NW 7.7 mph 9.2 mph 86% 0.00 in 0.0 W/m2 OVC
21:16 27.6 °F 24.0 °F 30.26 in West 9.2 mph 10.4 mph 86% 0.00 in 0.0 W/m2 OVC
21:21 27.6 °F 24.2 °F 30.26 in NW 7.5 mph 9.2 mph 87% 0.00 in 0.0 W/m2 OVC
21:26 27.7 °F 24.3 °F 30.26 in WNW 4.7 mph 7.2 mph 87% 0.00 in 0.0 W/m2 OVC
21:32 27.6 °F 24.2 °F 30.26 in NNW 6.0 mph 6.0 mph 87% 0.00 in 0.0 W/m2 OVC
21:37 27.6 °F 24.0 °F 30.26 in NW 5.9 mph 9.6 mph 86% 0.00 in 0.0 W/m2 OVC
21:42 27.5 °F 23.9 °F 30.26 in NW 5.0 mph 10.0 mph 86% 0.00 in 0.0 W/m2 OVC
21:47 27.6 °F 24.2 °F 30.27 in North 7.6 mph 7.6 mph 87% 0.00 in 0.0 W/m2 OVC
21:52 27.5 °F 23.9 °F 30.26 in North 6.0 mph 10.0 mph 86% 0.00 in 0.0 W/m2 OVC
21:57 27.4 °F 23.8 °F 30.26 in NNW 8.0 mph 11.0 mph 86% 0.00 in 0.0 W/m2 OVC
22:02 27.2 °F 23.6 °F 30.26 in NNW 7.6 mph 12.7 mph 86% 0.00 in 0.0 W/m2 OVC
Compliments of Weather Underground - 2.75 mb